Time;durP1;ratioP1;P1;durP2;ratioP2;P2;SDS_P1;SDS_P2;PMS_P1;PMS_P2;Temp;Humidity;BMP_temperature;BMP_pressure;BME280_temperature;BME280_humidity;BME280_pressure;Samples;Min_cycle;Max_cycle;Signal;HPM_P1;HPM_P2
2023/04/04 00:01:04;;;;;;;3.53;1.77;;;;;;;;;;5036462;28;20204;-70
2023/04/04 00:03:31;;;;;;;4.43;1.67;;;;;;;;;;5024622;28;20764;-70
2023/04/04 00:05:57;;;;;;;4.80;1.57;;;;;;;;;;5042925;28;20198;-70
2023/04/04 00:08:24;;;;;;;3.23;1.50;;;;;;;;;;5024322;28;20199;-70
2023/04/04 00:10:56;;;;;;;2.70;1.63;;;;;;;;;;5034181;28;20295;-70
2023/04/04 00:13:23;;;;;;;3.50;1.50;;;;;;;;;;5047753;28;20270;-70
2023/04/04 00:15:49;;;;;;;3.90;1.77;;;;;;;;;;5043049;28;20254;-70
2023/04/04 00:18:15;;;;;;;4.43;1.53;;;;;;;;;;5022145;28;20210;-70
2023/04/04 00:20:41;;;;;;;3.90;1.57;;;;;;;;;;5039251;28;20196;-70
2023/04/04 00:23:09;;;;;;;3.73;1.60;;;;;;;;;;5044300;28;20187;-70
2023/04/04 00:25:36;;;;;;;3.37;1.47;;;;;;;;;;5046456;28;20589;-70
2023/04/04 00:28:03;;;;;;;3.27;1.33;;;;;;;;;;5030671;28;20219;-70
2023/04/04 00:30:36;;;;;;;4.60;1.93;;;;;;;;;;5040910;28;20203;-71
2023/04/04 00:33:03;;;;;;;2.90;1.70;;;;;;;;;;5018720;28;20210;-70
2023/04/04 00:35:54;;;;;;;5.73;1.77;;;;;;;;;;5042762;28;20218;-70
2023/04/04 00:38:20;;;;;;;3.00;1.23;;;;;;;;;;5043380;28;20203;-70
2023/04/04 00:40:48;;;;;;;5.67;1.70;;;;;;;;;;5024654;28;20209;-70
2023/04/04 00:43:16;;;;;;;1.80;1.43;;;;;;;;;;5036843;28;20687;-70
2023/04/04 00:45:42;;;;;;;2.50;1.53;;;;;;;;;;5040626;28;20214;-69
2023/04/04 00:48:09;;;;;;;1.77;1.50;;;;;;;;;;5044297;28;20615;-70
2023/04/04 00:50:35;;;;;;;2.63;1.40;;;;;;;;;;5028646;28;20202;-70
2023/04/04 00:53:02;;;;;;;3.90;1.67;;;;;;;;;;5027548;28;20211;-68
2023/04/04 00:55:29;;;;;;;3.90;1.63;;;;;;;;;;5032224;28;20229;-70
2023/04/04 00:57:55;;;;;;;3.17;1.67;;;;;;;;;;5028163;28;20221;-70
2023/04/04 01:00:23;;;;;;;3.53;1.50;;;;;;;;;;5043958;28;20557;-70
2023/04/04 01:02:52;;;;;;;3.83;1.70;;;;;;;;;;5037524;28;20199;-70
2023/04/04 01:05:19;;;;;;;4.23;1.87;;;;;;;;;;5025394;28;20211;-70
2023/04/04 01:07:45;;;;;;;5.63;1.67;;;;;;;;;;5043464;28;20215;-70
2023/04/04 01:10:14;;;;;;;6.27;1.50;;;;;;;;;;5026046;28;20207;-71
2023/04/04 01:12:41;;;;;;;3.77;1.63;;;;;;;;;;5027830;28;20191;-71
2023/04/04 01:15:08;;;;;;;2.33;1.40;;;;;;;;;;5024051;28;20604;-70
2023/04/04 01:17:36;;;;;;;2.10;1.40;;;;;;;;;;5025551;28;20223;-71
2023/04/04 01:20:04;;;;;;;3.67;1.67;;;;;;;;;;5030171;28;20295;-70
2023/04/04 01:22:38;;;;;;;4.00;1.80;;;;;;;;;;5022715;28;20646;-70
2023/04/04 01:25:05;;;;;;;2.73;1.70;;;;;;;;;;5029064;28;20603;-68
2023/04/04 01:27:33;;;;;;;4.63;1.50;;;;;;;;;;5027816;28;20277;-70
2023/04/04 01:30:08;;;;;;;5.10;1.70;;;;;;;;;;5029009;28;20194;-69
2023/04/04 01:32:37;;;;;;;3.53;1.40;;;;;;;;;;5023739;28;20195;-70
2023/04/04 01:35:11;;;;;;;2.87;1.67;;;;;;;;;;5048040;28;20681;-70
2023/04/04 01:37:44;;;;;;;2.20;1.50;;;;;;;;;;5029512;28;20322;-70
2023/04/04 01:40:16;;;;;;;3.00;1.40;;;;;;;;;;5040074;28;20203;-70
2023/04/04 01:42:46;;;;;;;4.53;1.70;;;;;;;;;;5041187;28;20203;-70
2023/04/04 01:45:12;;;;;;;3.40;1.73;;;;;;;;;;5031967;28;20286;-70
2023/04/04 01:47:39;;;;;;;2.57;1.70;;;;;;;;;;5030709;28;20475;-70
2023/04/04 01:50:07;;;;;;;6.63;1.90;;;;;;;;;;5036738;28;20669;-71
2023/04/04 01:52:34;;;;;;;4.27;1.67;;;;;;;;;;5033988;28;20195;-70
2023/04/04 01:55:01;;;;;;;5.17;2.10;;;;;;;;;;5042624;28;20246;-70
2023/04/04 01:57:28;;;;;;;4.10;2.00;;;;;;;;;;5028939;28;20707;-70
2023/04/04 01:59:56;;;;;;;6.33;1.77;;;;;;;;;;5029043;28;20530;-70
2023/04/04 02:02:23;;;;;;;6.80;1.90;;;;;;;;;;5027978;28;20196;-70
2023/04/04 02:04:49;;;;;;;2.23;1.30;;;;;;;;;;5027993;28;20204;-70
2023/04/04 02:07:15;;;;;;;5.00;1.63;;;;;;;;;;5025636;28;20227;-70
2023/04/04 02:09:42;;;;;;;5.47;1.80;;;;;;;;;;5041048;28;20192;-69
2023/04/04 02:12:09;;;;;;;3.60;1.37;;;;;;;;;;5042303;28;20196;-70
2023/04/04 02:14:35;;;;;;;3.97;1.70;;;;;;;;;;5027811;28;20199;-70
2023/04/04 02:17:03;;;;;;;6.57;1.97;;;;;;;;;;5044367;28;20349;-70
2023/04/04 02:19:30;;;;;;;3.57;1.90;;;;;;;;;;5025380;28;20550;-70
2023/04/04 02:21:57;;;;;;;6.20;1.93;;;;;;;;;;5027961;28;20202;-70
2023/04/04 02:24:23;;;;;;;3.37;1.73;;;;;;;;;;5027925;28;20199;-70
2023/04/04 02:26:49;;;;;;;4.83;1.70;;;;;;;;;;5049136;28;20215;-70
2023/04/04 02:29:16;;;;;;;4.07;1.87;;;;;;;;;;5038391;28;20204;-70
2023/04/04 02:31:43;;;;;;;2.50;1.33;;;;;;;;;;5040878;28;20192;-71
2023/04/04 02:34:11;;;;;;;5.97;1.77;;;;;;;;;;5044061;28;20290;-70
2023/04/04 02:36:37;;;;;;;2.67;1.37;;;;;;;;;;5031617;28;20626;-70
2023/04/04 02:39:04;;;;;;;4.50;1.50;;;;;;;;;;5031406;28;20205;-71
2023/04/04 02:41:31;;;;;;;4.50;1.77;;;;;;;;;;5045616;28;20203;-70
2023/04/04 02:43:57;;;;;;;3.53;1.87;;;;;;;;;;5033379;28;20214;-70
2023/04/04 02:46:23;;;;;;;4.93;1.90;;;;;;;;;;5030723;28;20239;-71
2023/04/04 02:48:57;;;;;;;2.87;1.70;;;;;;;;;;5026557;28;20203;-71
2023/04/04 02:51:24;;;;;;;3.07;1.70;;;;;;;;;;5047682;28;20473;-70
2023/04/04 02:53:51;;;;;;;3.10;1.73;;;;;;;;;;5036693;28;20449;-70
2023/04/04 02:56:22;;;;;;;3.23;1.67;;;;;;;;;;5033938;28;20726;-70
2023/04/04 02:58:49;;;;;;;5.43;1.90;;;;;;;;;;5046844;28;20548;-70
2023/04/04 03:01:15;;;;;;;5.43;1.80;;;;;;;;;;5028613;28;20456;-69
2023/04/04 03:03:41;;;;;;;6.57;2.23;;;;;;;;;;5046694;28;20808;-70
2023/04/04 03:06:08;;;;;;;3.37;1.93;;;;;;;;;;5032454;28;20517;-71
2023/04/04 03:08:36;;;;;;;5.80;1.87;;;;;;;;;;5041911;28;20206;-70
2023/04/04 03:11:02;;;;;;;4.13;1.93;;;;;;;;;;5035444;28;20487;-70
2023/04/04 03:13:28;;;;;;;4.27;1.50;;;;;;;;;;5031283;28;20465;-70
2023/04/04 03:15:58;;;;;;;2.20;1.57;;;;;;;;;;5030981;28;20467;-70
2023/04/04 03:18:27;;;;;;;6.17;2.00;;;;;;;;;;5039210;28;20456;-71
2023/04/04 03:20:53;;;;;;;6.03;1.87;;;;;;;;;;5048075;28;20462;-70
2023/04/04 03:23:19;;;;;;;5.73;2.17;;;;;;;;;;5048562;28;20467;-70
2023/04/04 03:25:47;;;;;;;5.80;2.17;;;;;;;;;;5045733;28;20460;-71
2023/04/04 03:28:14;;;;;;;7.83;1.80;;;;;;;;;;5030467;28;20466;-70
2023/04/04 03:30:40;;;;;;;3.57;1.73;;;;;;;;;;5046879;28;20462;-71
2023/04/04 03:33:07;;;;;;;6.30;2.17;;;;;;;;;;5048944;28;20685;-71
2023/04/04 03:35:33;;;;;;;4.27;1.87;;;;;;;;;;5045471;28;20447;-71
2023/04/04 03:38:00;;;;;;;5.93;2.20;;;;;;;;;;5033145;28;20478;-71
2023/04/04 03:40:27;;;;;;;5.27;1.90;;;;;;;;;;5041311;28;20485;-70
2023/04/04 03:42:55;;;;;;;2.30;1.90;;;;;;;;;;5041821;28;20469;-70
2023/04/04 03:45:21;;;;;;;4.10;2.00;;;;;;;;;;5044229;28;20972;-71
2023/04/04 03:47:47;;;;;;;5.63;2.40;;;;;;;;;;5044959;28;20494;-71
2023/04/04 03:50:14;;;;;;;3.70;2.03;;;;;;;;;;5049167;28;20547;-70
2023/04/04 03:52:47;;;;;;;3.33;2.03;;;;;;;;;;5032958;28;20453;-73
2023/04/04 03:55:13;;;;;;;6.37;2.53;;;;;;;;;;5050841;28;20461;-73
2023/04/04 03:57:40;;;;;;;8.67;2.63;;;;;;;;;;5051583;28;20475;-73
2023/04/04 04:00:15;;;;;;;6.30;3.67;;;;;;;;;;5033964;28;20452;-73
2023/04/04 04:02:43;;;;;;;4.17;2.57;;;;;;;;;;5043318;28;20522;-73
2023/04/04 04:05:10;;;;;;;7.07;2.93;;;;;;;;;;5036331;28;20458;-73
2023/04/04 04:07:36;;;;;;;5.33;2.70;;;;;;;;;;5029720;28;20575;-73
2023/04/04 04:10:06;;;;;;;4.83;2.73;;;;;;;;;;5048757;28;20455;-73
2023/04/04 04:12:33;;;;;;;8.90;3.67;;;;;;;;;;5058823;28;20503;-73
2023/04/04 04:14:59;;;;;;;5.43;3.17;;;;;;;;;;5030969;28;20991;-72
2023/04/04 04:17:29;;;;;;;7.40;2.90;;;;;;;;;;5028303;28;20471;-73
2023/04/04 04:19:55;;;;;;;4.13;2.00;;;;;;;;;;5051818;28;20825;-72
2023/04/04 04:22:22;;;;;;;7.97;2.77;;;;;;;;;;5035820;28;20456;-73
2023/04/04 04:24:48;;;;;;;4.03;2.60;;;;;;;;;;5035315;28;20456;-73
2023/04/04 04:27:15;;;;;;;5.17;2.40;;;;;;;;;;5048957;28;20645;-73
2023/04/04 04:29:42;;;;;;;6.87;2.30;;;;;;;;;;5058337;28;20453;-71
2023/04/04 04:32:08;;;;;;;3.43;2.40;;;;;;;;;;5048912;28;20461;-71
2023/04/04 04:34:41;;;;;;;4.20;1.63;;;;;;;;;;5045061;28;20463;-71
2023/04/04 04:37:08;;;;;;;3.87;1.83;;;;;;;;;;5029904;28;20854;-72
2023/04/04 04:39:42;;;;;;;3.47;1.90;;;;;;;;;;5026930;28;20487;-72
2023/04/04 04:42:20;;;;;;;4.90;1.67;;;;;;;;;;5046749;28;20461;-71
2023/04/04 04:44:52;;;;;;;4.27;1.70;;;;;;;;;;5034930;28;20538;-70
2023/04/04 04:47:20;;;;;;;2.50;1.60;;;;;;;;;;5029993;28;20481;-71
2023/04/04 04:49:49;;;;;;;3.67;1.77;;;;;;;;;;5029530;28;20473;-72
2023/04/04 04:52:19;;;;;;;2.83;1.67;;;;;;;;;;5041977;28;20446;-72
2023/04/04 04:54:47;;;;;;;3.10;1.83;;;;;;;;;;5048210;28;20442;-71
2023/04/04 04:57:13;;;;;;;5.00;2.13;;;;;;;;;;5045942;28;20522;-71
2023/04/04 04:59:43;;;;;;;3.77;2.07;;;;;;;;;;5028889;28;20460;-71
2023/04/04 05:02:11;;;;;;;8.27;2.67;;;;;;;;;;5047648;28;20494;-71
2023/04/04 05:04:44;;;;;;;5.63;2.57;;;;;;;;;;5022641;28;20451;-72
2023/04/04 05:07:13;;;;;;;9.97;2.30;;;;;;;;;;5044048;28;20913;-73
2023/04/04 05:09:42;;;;;;;4.87;1.93;;;;;;;;;;5033263;28;20458;-73
2023/04/04 05:12:08;;;;;;;6.40;1.90;;;;;;;;;;5047621;28;20462;-73
2023/04/04 05:14:39;;;;;;;3.10;1.90;;;;;;;;;;5045232;28;20532;-73
2023/04/04 05:17:06;;;;;;;7.10;2.37;;;;;;;;;;5053177;28;20478;-72
2023/04/04 05:19:34;;;;;;;5.60;2.10;;;;;;;;;;5035707;28;20466;-73
2023/04/04 05:22:01;;;;;;;7.10;2.23;;;;;;;;;;5040720;28;20951;-73
2023/04/04 05:24:43;;;;;;;5.27;2.10;;;;;;;;;;5035376;28;20881;-73
2023/04/04 05:27:13;;;;;;;10.30;2.97;;;;;;;;;;5047527;28;20922;-72
2023/04/04 05:29:45;;;;;;;7.33;2.33;;;;;;;;;;5048373;28;20459;-73
2023/04/04 05:32:12;;;;;;;4.87;2.53;;;;;;;;;;5033282;28;20449;-72
2023/04/04 05:34:41;;;;;;;4.40;2.40;;;;;;;;;;5040930;28;20955;-73
2023/04/04 05:37:11;;;;;;;5.80;2.20;;;;;;;;;;5049823;28;20474;-73
2023/04/04 05:39:38;;;;;;;6.33;2.00;;;;;;;;;;5030376;28;20454;-73
2023/04/04 05:42:09;;;;;;;8.03;3.00;;;;;;;;;;5024710;28;20489;-72
2023/04/04 05:44:41;;;;;;;3.30;2.00;;;;;;;;;;5029152;28;20561;-73
2023/04/04 05:47:08;;;;;;;6.00;2.43;;;;;;;;;;5038978;28;20575;-73
2023/04/04 05:49:37;;;;;;;10.80;3.70;;;;;;;;;;5022337;28;20470;-72
2023/04/04 05:52:03;;;;;;;8.00;3.50;;;;;;;;;;5031150;28;20488;-73
2023/04/04 05:54:31;;;;;;;5.77;3.47;;;;;;;;;;5025599;28;20458;-73
2023/04/04 05:57:00;;;;;;;5.40;2.73;;;;;;;;;;5045453;28;20482;-72
2023/04/04 05:59:49;;;;;;;10.87;4.00;;;;;;;;;;5033547;28;20453;-73
2023/04/04 06:02:16;;;;;;;6.20;3.83;;;;;;;;;;5029780;28;20949;-73
2023/04/04 06:04:49;;;;;;;8.40;4.40;;;;;;;;;;5029106;28;20456;-73
2023/04/04 06:07:21;;;;;;;7.80;3.53;;;;;;;;;;5024529;28;20472;-73
2023/04/04 06:09:48;;;;;;;7.43;3.27;;;;;;;;;;5045527;28;20518;-73
2023/04/04 06:12:15;;;;;;;8.43;3.47;;;;;;;;;;5040313;28;21047;-70
2023/04/04 06:14:41;;;;;;;9.63;4.40;;;;;;;;;;5034144;28;20525;-71
2023/04/04 06:17:10;;;;;;;13.47;4.70;;;;;;;;;;5041142;28;20474;-70
2023/04/04 06:19:36;;;;;;;7.50;3.53;;;;;;;;;;5035968;28;20531;-71
2023/04/04 06:22:02;;;;;;;12.10;4.70;;;;;;;;;;5048692;28;20810;-71
2023/04/04 06:24:32;;;;;;;8.47;3.97;;;;;;;;;;5035299;28;20457;-71
2023/04/04 06:26:59;;;;;;;6.23;3.60;;;;;;;;;;5058434;28;20487;-71
2023/04/04 06:29:26;;;;;;;4.23;2.50;;;;;;;;;;5052549;28;20456;-70
2023/04/04 06:31:56;;;;;;;5.07;2.57;;;;;;;;;;5048924;28;20961;-70
2023/04/04 06:34:34;;;;;;;5.93;2.43;;;;;;;;;;5024910;28;20513;-70
2023/04/04 06:37:02;;;;;;;6.83;2.50;;;;;;;;;;5025664;28;21190;-70
2023/04/04 06:39:34;;;;;;;4.33;2.53;;;;;;;;;;5053110;28;20453;-71
2023/04/04 06:42:11;;;;;;;4.57;2.23;;;;;;;;;;5041673;28;20265;-71
2023/04/04 06:44:40;;;;;;;5.50;2.87;;;;;;;;;;5036516;28;20576;-70
2023/04/04 06:47:06;;;;;;;8.00;2.60;;;;;;;;;;5025169;28;20219;-70
2023/04/04 06:49:37;;;;;;;5.17;2.40;;;;;;;;;;5012325;28;20208;-70
2023/04/04 06:52:04;;;;;;;6.30;2.13;;;;;;;;;;5015407;28;20294;-70
2023/04/04 06:54:30;;;;;;;3.97;2.47;;;;;;;;;;5006828;28;20207;-70
2023/04/04 06:56:57;;;;;;;10.23;2.30;;;;;;;;;;5025236;28;20580;-70
2023/04/04 06:59:23;;;;;;;4.27;1.80;;;;;;;;;;5032639;28;20834;-70
2023/04/04 07:01:50;;;;;;;6.40;2.00;;;;;;;;;;5024467;28;20205;-67
2023/04/04 07:04:18;;;;;;;4.70;2.17;;;;;;;;;;5031294;28;20196;-70
2023/04/04 07:06:45;;;;;;;5.13;2.33;;;;;;;;;;5023671;28;20222;-70
2023/04/04 07:09:12;;;;;;;5.47;2.40;;;;;;;;;;5029543;28;20211;-70
2023/04/04 07:11:38;;;;;;;3.77;2.00;;;;;;;;;;5025864;28;20475;-69
2023/04/04 07:14:04;;;;;;;4.07;2.03;;;;;;;;;;5032014;28;20605;-70
2023/04/04 07:16:30;;;;;;;4.80;2.13;;;;;;;;;;5026817;28;20284;-70
2023/04/04 07:18:57;;;;;;;6.50;2.60;;;;;;;;;;5025641;28;20231;-71
2023/04/04 07:21:24;;;;;;;5.20;2.43;;;;;;;;;;5027451;28;20200;-69
2023/04/04 07:23:52;;;;;;;6.07;2.77;;;;;;;;;;5030000;28;20196;-71
2023/04/04 07:26:18;;;;;;;2.70;1.47;;;;;;;;;;5032529;28;20273;-71
2023/04/04 07:28:44;;;;;;;5.03;1.80;;;;;;;;;;5026434;28;20688;-70
2023/04/04 07:31:11;;;;;;;5.03;1.60;;;;;;;;;;5026995;28;20652;-69
2023/04/04 07:33:37;;;;;;;2.57;1.80;;;;;;;;;;5025086;28;20212;-70
2023/04/04 07:36:03;;;;;;;6.07;1.90;;;;;;;;;;5027109;28;20416;-70
2023/04/04 07:38:30;;;;;;;4.17;1.63;;;;;;;;;;5025714;28;20192;-67
2023/04/04 07:40:57;;;;;;;3.13;1.77;;;;;;;;;;5021763;28;20200;-69
2023/04/04 07:43:23;;;;;;;4.93;1.83;;;;;;;;;;5023372;28;20209;-70
2023/04/04 07:45:50;;;;;;;2.90;1.97;;;;;;;;;;5028359;28;20565;-70
2023/04/04 07:48:17;;;;;;;5.07;1.80;;;;;;;;;;5043501;28;20751;-69
2023/04/04 07:50:43;;;;;;;5.03;1.60;;;;;;;;;;5043685;28;20861;-70
2023/04/04 07:53:09;;;;;;;5.87;1.93;;;;;;;;;;5051254;28;20209;-70
2023/04/04 07:55:35;;;;;;;2.40;1.60;;;;;;;;;;5047718;28;20211;-70
2023/04/04 07:58:03;;;;;;;2.77;1.77;;;;;;;;;;5048720;28;20596;-70
2023/04/04 08:00:30;;;;;;;4.83;1.60;;;;;;;;;;5045219;28;20203;-70
2023/04/04 08:02:58;;;;;;;4.70;1.57;;;;;;;;;;5048176;28;20227;-70
2023/04/04 08:05:24;;;;;;;3.60;1.60;;;;;;;;;;5041352;28;20599;-68
2023/04/04 08:07:50;;;;;;;4.93;1.20;;;;;;;;;;5045487;28;20269;-71
2023/04/04 08:10:17;;;;;;;3.83;1.30;;;;;;;;;;5047222;28;20207;-70
2023/04/04 08:12:44;;;;;;;2.97;1.07;;;;;;;;;;5042592;28;20199;-69
2023/04/04 08:15:12;;;;;;;3.67;1.40;;;;;;;;;;5044163;28;20279;-70
2023/04/04 08:17:38;;;;;;;3.03;1.17;;;;;;;;;;5047878;28;20242;-70
2023/04/04 08:20:05;;;;;;;0.80;0.60;;;;;;;;;;5040794;28;20203;-70
2023/04/04 08:22:32;;;;;;;0.93;0.73;;;;;;;;;;5043001;28;20196;-70
2023/04/04 08:24:59;;;;;;;0.73;0.63;;;;;;;;;;5041660;28;20696;-70
2023/04/04 08:27:26;;;;;;;1.67;1.00;;;;;;;;;;5042361;28;20234;-69
2023/04/04 08:29:52;;;;;;;2.07;0.57;;;;;;;;;;5046398;28;20246;-70
2023/04/04 08:32:21;;;;;;;1.73;0.80;;;;;;;;;;5043854;28;20404;-71
2023/04/04 08:34:47;;;;;;;3.10;0.90;;;;;;;;;;5040504;28;20203;-70
2023/04/04 08:37:13;;;;;;;4.37;1.57;;;;;;;;;;5044979;28;20257;-71
2023/04/04 08:39:39;;;;;;;1.43;0.97;;;;;;;;;;5036092;28;20335;-67
2023/04/04 08:42:09;;;;;;;0.67;0.57;;;;;;;;;;5036198;28;20287;-70
2023/04/04 08:44:36;;;;;;;1.10;0.83;;;;;;;;;;5023090;28;20208;-70
2023/04/04 08:47:04;;;;;;;6.23;0.83;;;;;;;;;;5042023;28;20225;-70
2023/04/04 08:49:33;;;;;;;1.43;0.70;;;;;;;;;;5026123;28;20230;-71
2023/04/04 08:52:01;;;;;;;1.60;0.70;;;;;;;;;;5041838;28;20552;-70
2023/04/04 08:54:28;;;;;;;2.47;0.70;;;;;;;;;;5041666;28;20257;-71
2023/04/04 08:56:55;;;;;;;1.53;1.13;;;;;;;;;;5026969;28;20833;-70
2023/04/04 08:59:21;;;;;;;3.80;1.00;;;;;;;;;;5046746;28;20205;-69
2023/04/04 09:01:47;;;;;;;2.13;0.77;;;;;;;;;;5044591;28;20687;-70
2023/04/04 09:04:13;;;;;;;0.50;0.50;;;;;;;;;;5039306;28;20611;-70
2023/04/04 09:06:41;;;;;;;1.90;0.70;;;;;;;;;;5042327;28;20222;-70
2023/04/04 09:09:08;;;;;;;1.40;0.73;;;;;;;;;;5041962;28;20219;-70
2023/04/04 09:11:36;;;;;;;1.83;0.90;;;;;;;;;;5044212;28;20283;-70
2023/04/04 09:14:03;;;;;;;1.77;0.80;;;;;;;;;;5041473;28;20203;-70
2023/04/04 09:16:29;;;;;;;0.60;0.50;;;;;;;;;;5026610;28;20230;-70
2023/04/04 09:18:56;;;;;;;1.27;0.70;;;;;;;;;;5045076;28;20194;-69
2023/04/04 09:21:22;;;;;;;1.27;0.70;;;;;;;;;;5041571;28;20203;-69
2023/04/04 09:23:57;;;;;;;2.10;1.03;;;;;;;;;;5048019;28;20202;-70
2023/04/04 09:26:23;;;;;;;1.73;0.67;;;;;;;;;;5037384;28;20231;-70
2023/04/04 09:28:52;;;;;;;1.23;0.57;;;;;;;;;;5043762;28;20219;-68
2023/04/04 09:31:18;;;;;;;1.70;0.80;;;;;;;;;;5043469;28;20743;-70
2023/04/04 09:33:45;;;;;;;1.53;0.70;;;;;;;;;;5045013;28;20686;-70
2023/04/04 09:36:11;;;;;;;0.60;0.50;;;;;;;;;;5043411;28;20234;-70
2023/04/04 09:38:39;;;;;;;1.33;0.80;;;;;;;;;;5046896;28;20195;-70
2023/04/04 09:41:08;;;;;;;0.70;0.70;;;;;;;;;;5037405;28;20553;-70
2023/04/04 09:43:36;;;;;;;1.17;0.80;;;;;;;;;;5038171;28;20287;-70
2023/04/04 09:46:03;;;;;;;0.70;0.70;;;;;;;;;;5051132;28;20668;-70
2023/04/04 09:48:31;;;;;;;0.40;0.40;;;;;;;;;;5044084;28;20576;-68
2023/04/04 09:51:22;;;;;;;1.37;0.70;;;;;;;;;;5054925;28;20712;-70
2023/04/04 09:53:49;;;;;;;0.83;0.80;;;;;;;;;;5047007;28;20211;-69
2023/04/04 09:56:17;;;;;;;2.20;0.70;;;;;;;;;;5044049;28;20228;-71
2023/04/04 09:58:46;;;;;;;0.60;0.60;;;;;;;;;;5047502;28;20541;-68
2023/04/04 10:01:12;;;;;;;1.27;0.70;;;;;;;;;;5049037;28;20208;-70
2023/04/04 10:03:39;;;;;;;1.43;0.93;;;;;;;;;;5044201;28;20645;-71
2023/04/04 10:06:05;;;;;;;1.73;0.60;;;;;;;;;;5036711;28;20203;-70
2023/04/04 10:08:32;;;;;;;1.43;0.70;;;;;;;;;;5045535;28;20548;-70
2023/04/04 10:10:59;;;;;;;2.63;0.80;;;;;;;;;;5042859;28;20211;-69
2023/04/04 10:13:28;;;;;;;1.20;0.50;;;;;;;;;;5040560;28;20234;-68
2023/04/04 10:15:54;;;;;;;1.70;0.70;;;;;;;;;;5043665;28;20226;-69
2023/04/04 10:18:21;;;;;;;1.10;0.60;;;;;;;;;;5045188;28;20204;-70
2023/04/04 10:20:48;;;;;;;0.90;0.60;;;;;;;;;;5047271;28;20203;-71
2023/04/04 10:23:15;;;;;;;1.50;0.70;;;;;;;;;;5049973;28;20204;-70
2023/04/04 10:25:41;;;;;;;1.43;0.80;;;;;;;;;;5045048;28;20265;-70
2023/04/04 10:28:08;;;;;;;0.97;0.80;;;;;;;;;;5047010;28;20210;-70
2023/04/04 10:30:39;;;;;;;2.33;0.60;;;;;;;;;;5048369;28;20206;-70
2023/04/04 10:33:10;;;;;;;2.10;0.80;;;;;;;;;;5039844;28;20227;-70
2023/04/04 10:35:37;;;;;;;1.30;0.70;;;;;;;;;;5044530;28;20555;-69
2023/04/04 10:38:05;;;;;;;1.80;0.70;;;;;;;;;;5044810;28;20599;-71
2023/04/04 10:40:36;;;;;;;1.50;0.80;;;;;;;;;;5040785;28;20804;-69
2023/04/04 10:43:04;;;;;;;1.27;0.80;;;;;;;;;;5042456;28;20304;-71
2023/04/04 10:45:59;;;;;;;1.43;0.67;;;;;;;;;;5048491;28;20321;-70
2023/04/04 10:48:26;;;;;;;0.77;0.60;;;;;;;;;;5041119;28;20640;-69
2023/04/04 10:50:53;;;;;;;2.40;0.93;;;;;;;;;;5046814;28;20273;-68
2023/04/04 10:53:21;;;;;;;2.03;0.90;;;;;;;;;;5044658;28;20206;-69
2023/04/04 10:55:47;;;;;;;0.53;0.53;;;;;;;;;;5048877;28;20707;-68
2023/04/04 10:58:14;;;;;;;1.37;0.60;;;;;;;;;;5046747;28;20659;-69
2023/04/04 11:00:51;;;;;;;1.63;0.90;;;;;;;;;;5051272;28;20200;-68
2023/04/04 11:03:19;;;;;;;2.30;1.20;;;;;;;;;;5044904;28;20207;-70
2023/04/04 11:05:47;;;;;;;0.70;0.53;;;;;;;;;;5042782;28;20201;-70
2023/04/04 11:08:15;;;;;;;0.63;0.60;;;;;;;;;;5028091;28;20225;-70
2023/04/04 11:10:43;;;;;;;1.77;1.00;;;;;;;;;;5042987;28;20207;-70
2023/04/04 11:13:11;;;;;;;1.93;1.07;;;;;;;;;;5040378;28;20691;-68
2023/04/04 11:15:51;;;;;;;1.10;0.77;;;;;;;;;;5037636;28;20215;-69
2023/04/04 11:18:20;;;;;;;1.00;0.90;;;;;;;;;;5039461;28;20464;-69
2023/04/04 11:20:47;;;;;;;5.67;1.60;;;;;;;;;;5045609;28;20191;-68
2023/04/04 11:23:18;;;;;;;13.53;3.13;;;;;;;;;;5046084;28;20560;-70
2023/04/04 11:25:50;;;;;;;4.13;1.30;;;;;;;;;;5044923;28;20203;-70
2023/04/04 11:28:25;;;;;;;30.77;8.00;;;;;;;;;;5043142;28;20223;-69
2023/04/04 11:31:16;;;;;;;2.43;0.93;;;;;;;;;;5044654;28;20229;-69
2023/04/04 11:33:55;;;;;;;0.70;0.70;;;;;;;;;;5036157;28;20200;-70
2023/04/04 11:36:24;;;;;;;0.73;0.53;;;;;;;;;;5035519;28;21006;-69
2023/04/04 11:38:50;;;;;;;0.50;0.50;;;;;;;;;;5039324;28;20200;-70
2023/04/04 11:41:16;;;;;;;0.77;0.60;;;;;;;;;;5046302;28;20220;-70
2023/04/04 11:43:44;;;;;;;0.50;0.50;;;;;;;;;;5047096;28;20199;-70
2023/04/04 11:46:10;;;;;;;0.80;0.77;;;;;;;;;;5042591;28;20262;-68
2023/04/04 11:48:38;;;;;;;5.57;0.80;;;;;;;;;;5039880;28;20222;-68
2023/04/04 11:51:08;;;;;;;3.07;0.97;;;;;;;;;;5035744;28;20207;-69
2023/04/04 11:53:34;;;;;;;3.60;1.30;;;;;;;;;;5042275;28;20195;-69
2023/04/04 11:56:01;;;;;;;2.57;1.33;;;;;;;;;;5044124;28;20187;-68
2023/04/04 11:58:27;;;;;;;1.77;0.70;;;;;;;;;;5044266;28;20199;-70
2023/04/04 12:00:54;;;;;;;3.57;1.00;;;;;;;;;;5044450;28;20215;-71
2023/04/04 12:03:21;;;;;;;2.37;1.10;;;;;;;;;;5039923;28;20210;-71
2023/04/04 12:05:48;;;;;;;4.47;0.83;;;;;;;;;;5044254;28;20320;-69
2023/04/04 12:08:16;;;;;;;1.23;0.87;;;;;;;;;;5040709;28;20250;-69
2023/04/04 12:10:43;;;;;;;3.17;1.00;;;;;;;;;;5039835;28;20230;-69
2023/04/04 12:13:10;;;;;;;1.47;0.90;;;;;;;;;;5042053;28;20265;-69
2023/04/04 12:15:36;;;;;;;1.67;0.87;;;;;;;;;;5041015;28;20210;-69
2023/04/04 12:18:03;;;;;;;2.73;0.80;;;;;;;;;;5037552;28;20222;-70
2023/04/04 12:20:31;;;;;;;1.17;0.97;;;;;;;;;;5043515;28;20207;-69
2023/04/04 12:22:57;;;;;;;2.77;0.90;;;;;;;;;;5045839;28;20413;-69
2023/04/04 12:25:27;;;;;;;1.10;0.80;;;;;;;;;;5047531;28;20198;-70
2023/04/04 12:27:54;;;;;;;1.17;0.97;;;;;;;;;;5038292;28;20248;-68
2023/04/04 12:30:20;;;;;;;0.87;0.70;;;;;;;;;;5040771;28;20298;-68
2023/04/04 12:32:48;;;;;;;1.40;0.80;;;;;;;;;;5043918;28;20694;-71
2023/04/04 12:35:15;;;;;;;1.83;0.87;;;;;;;;;;5029796;28;20203;-69
2023/04/04 12:37:54;;;;;;;1.17;0.90;;;;;;;;;;5043494;28;20297;-70
2023/04/04 12:40:20;;;;;;;1.03;0.90;;;;;;;;;;5038220;28;20202;-68
2023/04/04 12:42:48;;;;;;;1.23;0.90;;;;;;;;;;5041228;28;20222;-70
2023/04/04 12:45:14;;;;;;;1.70;0.83;;;;;;;;;;5044619;28;20575;-68
2023/04/04 12:47:51;;;;;;;1.67;0.90;;;;;;;;;;5044604;28;20227;-68
2023/04/04 12:50:20;;;;;;;0.80;0.80;;;;;;;;;;5038795;28;20214;-70
2023/04/04 12:52:50;;;;;;;3.07;1.03;;;;;;;;;;5036081;28;20219;-69
2023/04/04 12:55:19;;;;;;;1.33;0.70;;;;;;;;;;5040672;28;20199;-68
2023/04/04 12:57:46;;;;;;;0.97;0.90;;;;;;;;;;5040659;28;20660;-70
2023/04/04 13:00:14;;;;;;;0.80;0.80;;;;;;;;;;5039237;28;20200;-70
2023/04/04 13:02:42;;;;;;;1.07;0.97;;;;;;;;;;5039282;28;20196;-70
2023/04/04 13:05:10;;;;;;;1.00;0.87;;;;;;;;;;5043985;28;20214;-69
2023/04/04 13:07:41;;;;;;;2.50;1.40;;;;;;;;;;5037830;28;20266;-71
2023/04/04 13:10:10;;;;;;;1.47;1.20;;;;;;;;;;5043137;28;20269;-68
2023/04/04 13:12:55;;;;;;;2.40;1.10;;;;;;;;;;5044003;28;20191;-70
2023/04/04 13:15:24;;;;;;;2.20;1.10;;;;;;;;;;5042281;28;20211;-69
2023/04/04 13:17:51;;;;;;;1.73;0.80;;;;;;;;;;5042191;28;20382;-69
2023/04/04 13:20:19;;;;;;;1.20;1.00;;;;;;;;;;5037936;28;20249;-68
2023/04/04 13:22:45;;;;;;;1.30;1.00;;;;;;;;;;5039545;28;20195;-70
2023/04/04 13:25:11;;;;;;;3.80;0.93;;;;;;;;;;5042859;28;20602;-69
2023/04/04 13:27:37;;;;;;;0.87;0.80;;;;;;;;;;5039235;28;20228;-68
2023/04/04 13:30:05;;;;;;;1.17;0.77;;;;;;;;;;5042375;28;20227;-67
2023/04/04 13:32:32;;;;;;;1.87;1.00;;;;;;;;;;5043423;28;20191;-70
2023/04/04 13:34:58;;;;;;;2.70;1.30;;;;;;;;;;5039361;28;20202;-69
2023/04/04 13:37:25;;;;;;;2.73;1.00;;;;;;;;;;5045012;28;20588;-68
2023/04/04 13:39:51;;;;;;;1.00;0.70;;;;;;;;;;5036434;28;20195;-69
2023/04/04 13:42:18;;;;;;;2.33;1.00;;;;;;;;;;5027798;28;20282;-69
2023/04/04 13:44:44;;;;;;;1.23;0.90;;;;;;;;;;5039756;28;20254;-70
2023/04/04 13:47:10;;;;;;;1.87;1.20;;;;;;;;;;5040097;28;20227;-68
2023/04/04 13:49:38;;;;;;;1.23;0.90;;;;;;;;;;5044045;28;20298;-70
2023/04/04 13:52:04;;;;;;;0.90;0.90;;;;;;;;;;5043457;28;20203;-69
2023/04/04 13:54:30;;;;;;;1.37;1.00;;;;;;;;;;5039929;28;20253;-69
2023/04/04 13:56:57;;;;;;;1.50;0.70;;;;;;;;;;5041026;28;20364;-68
2023/04/04 13:59:23;;;;;;;2.97;1.03;;;;;;;;;;5042480;28;20226;-68
2023/04/04 14:01:49;;;;;;;1.43;1.00;;;;;;;;;;5044027;28;20202;-68
2023/04/04 14:04:16;;;;;;;1.53;1.20;;;;;;;;;;5040318;28;20477;-70
2023/04/04 14:06:43;;;;;;;3.80;1.23;;;;;;;;;;5040750;28;20214;-71
2023/04/04 14:09:10;;;;;;;1.20;1.03;;;;;;;;;;5037488;28;20211;-71
2023/04/04 14:11:36;;;;;;;2.40;0.97;;;;;;;;;;5044969;28;20202;-70
2023/04/04 14:14:02;;;;;;;1.73;1.20;;;;;;;;;;5032953;28;20204;-70
2023/04/04 14:16:29;;;;;;;2.00;1.10;;;;;;;;;;5037867;28;20260;-68
2023/04/04 14:18:55;;;;;;;2.40;1.20;;;;;;;;;;5031899;28;20684;-71
2023/04/04 14:21:21;;;;;;;2.17;1.13;;;;;;;;;;5040568;28;20207;-70
2023/04/04 14:23:49;;;;;;;3.03;1.40;;;;;;;;;;5040861;28;20198;-70
2023/04/04 14:26:16;;;;;;;0.97;0.87;;;;;;;;;;5021598;28;20215;-70
2023/04/04 14:28:42;;;;;;;1.10;1.00;;;;;;;;;;5037299;28;20203;-70
2023/04/04 14:31:08;;;;;;;1.37;1.10;;;;;;;;;;5030741;28;20210;-70
2023/04/04 14:33:34;;;;;;;2.17;1.20;;;;;;;;;;5037301;28;20195;-70
2023/04/04 14:36:01;;;;;;;1.40;1.10;;;;;;;;;;5055372;28;20268;-71
2023/04/04 14:38:27;;;;;;;2.23;1.27;;;;;;;;;;5050326;28;20195;-68
2023/04/04 14:40:55;;;;;;;2.17;1.30;;;;;;;;;;5047913;28;20193;-69
2023/04/04 14:43:21;;;;;;;2.57;1.20;;;;;;;;;;5040104;28;20587;-70
2023/04/04 14:45:48;;;;;;;1.80;1.20;;;;;;;;;;5034899;28;20200;-69
2023/04/04 14:48:14;;;;;;;1.70;1.07;;;;;;;;;;5033309;28;20318;-68